Time;durP1;ratioP1;P1;durP2;ratioP2;P2;SDS_P1;SDS_P2;PMS_P1;PMS_P2;Temp;Humidity;BMP_temperature;BMP_pressure;BME280_temperature;BME280_humidity;BME280_pressure;Samples;Min_cycle;Max_cycle;Signal;HPM_P1;HPM_P2
2022/10/08 00:01:52;;;;;;;;;;;8.80;99.90;;;;;;5070779;28;19954;-74
2022/10/08 00:04:19;;;;;;;;;;;9.60;99.90;;;;;;5060330;28;19981;-74
2022/10/08 00:06:45;;;;;;;;;;;9.60;99.90;;;;;;5070439;28;20010;-74
2022/10/08 00:09:13;;;;;;;;;;;9.60;99.90;;;;;;5072366;28;19925;-74
2022/10/08 00:11:40;;;;;;;;;;;9.70;99.90;;;;;;5074778;28;20344;-74
2022/10/08 00:14:08;;;;;;;;;;;9.70;99.90;;;;;;5070466;28;19928;-73
2022/10/08 00:16:36;;;;;;;;;;;9.80;99.90;;;;;;5068593;28;20313;-74
2022/10/08 00:19:03;;;;;;;;;;;9.80;99.90;;;;;;5070311;28;19928;-74
2022/10/08 00:21:31;;;;;;;;;;;9.80;99.90;;;;;;5069425;28;20586;-74
2022/10/08 00:23:58;;;;;;;;;;;9.80;99.90;;;;;;5069754;28;20023;-74
2022/10/08 00:26:27;;;;;;;;;;;9.80;99.90;;;;;;5066445;28;19948;-73
2022/10/08 00:28:55;;;;;;;;;;;9.90;99.90;;;;;;5069690;28;19940;-74
2022/10/08 00:31:22;;;;;;;;;;;9.90;99.90;;;;;;5069715;28;20600;-74
2022/10/08 00:33:49;;;;;;;;;;;9.90;99.90;;;;;;5070139;28;19924;-74
2022/10/08 00:36:16;;;;;;;;;;;9.90;99.90;;;;;;5069318;28;20467;-73
2022/10/08 00:38:43;;;;;;;;;;;9.90;99.90;;;;;;5069527;28;19977;-74
2022/10/08 00:41:16;;;;;;;;;;;9.90;99.90;;;;;;5069379;28;19931;-74
2022/10/08 00:43:45;;;;;;;;;;;9.90;99.90;;;;;;5068903;28;19924;-74
2022/10/08 00:46:18;;;;;;;;;;;9.90;99.90;;;;;;5069720;28;19928;-74
2022/10/08 00:48:44;;;;;;;;;;;9.80;99.90;;;;;;5069433;28;19932;-74
2022/10/08 00:51:11;;;;;;;;;;;9.80;99.90;;;;;;5051464;28;19977;-74
2022/10/08 00:53:38;;;;;;;;;;;9.80;99.90;;;;;;5069429;28;19985;-73
2022/10/08 00:56:05;;;;;;;;;;;9.80;99.90;;;;;;5069308;28;19959;-74
2022/10/08 00:58:32;;;;;;;;;;;9.80;99.90;;;;;;5069555;28;19928;-74
2022/10/08 01:01:00;;;;;;;;;;;9.80;99.90;;;;;;5085261;28;19965;-74
2022/10/08 01:03:27;;;;;;;;;;;9.70;99.90;;;;;;5071402;28;19927;-74
2022/10/08 01:06:01;;;;;;;;;;;9.70;99.90;;;;;;5089800;28;19960;-74
2022/10/08 01:08:33;;;;;;;;;;;11.00;99.90;;;;;;5071992;28;19936;-74
2022/10/08 01:11:03;;;;;;;;;;;9.80;99.90;;;;;;5069158;28;20355;-74
2022/10/08 01:13:34;;;;;;;;;;;9.80;99.90;;;;;;5068648;28;19936;-73
2022/10/08 01:16:07;;;;;;;;;;;9.80;99.90;;;;;;5069287;28;20371;-74
2022/10/08 01:18:41;;;;;;;;;;;9.80;99.90;;;;;;5068817;28;20633;-74
2022/10/08 01:21:11;;;;;;;;;;;9.80;99.90;;;;;;5050301;28;19931;-72
2022/10/08 01:23:45;;;;;;;;;;;9.80;99.90;;;;;;5068940;28;20390;-73
2022/10/08 01:26:25;;;;;;;;;;;9.80;99.90;;;;;;5068085;28;19924;-73
2022/10/08 01:28:56;;;;;;;;;;;9.80;99.90;;;;;;5069275;28;19934;-73
2022/10/08 01:31:24;;;;;;;;;;;9.70;99.90;;;;;;5068746;28;20404;-73
2022/10/08 01:33:54;;;;;;;;;;;9.70;99.90;;;;;;5068351;28;20396;-73
2022/10/08 01:36:21;;;;;;;;;;;9.70;99.90;;;;;;5069095;28;19925;-73
2022/10/08 01:38:53;;;;;;;;;;;9.70;99.90;;;;;;5068848;28;20385;-73
2022/10/08 01:41:21;;;;;;;;;;;9.80;99.90;;;;;;5068421;28;19959;-72
2022/10/08 01:43:51;;;;;;;;;;;9.80;99.90;;;;;;5069049;28;20599;-73
2022/10/08 01:46:20;;;;;;;;;;;9.90;99.90;;;;;;5068136;28;19925;-73
2022/10/08 01:48:49;;;;;;;;;;;10.00;99.90;;;;;;5063955;28;19928;-73
2022/10/08 01:51:19;;;;;;;;;;;10.10;99.90;;;;;;5069440;28;19985;-72
2022/10/08 01:53:47;;;;;;;;;;;10.10;99.90;;;;;;5065367;28;19932;-72
2022/10/08 01:56:17;;;;;;;;;;;10.10;99.90;;;;;;5083598;28;19982;-73
2022/10/08 01:58:48;;;;;;;;;;;10.10;99.90;;;;;;5088859;28;19928;-73
2022/10/08 02:01:18;;;;;;;;;;;10.20;99.90;;;;;;5088928;28;20029;-73
2022/10/08 02:06:28;;;;;;;;;;;10.30;99.90;;;;;;5084996;28;19928;-73
2022/10/08 02:08:55;;;;;;;;;;;10.40;99.90;;;;;;5068019;28;19937;-73
2022/10/08 02:11:22;;;;;;;;;;;10.50;99.90;;;;;;5067668;28;20012;-72
2022/10/08 02:13:48;;;;;;;;;;;10.60;99.90;;;;;;5067732;28;19932;-73
2022/10/08 02:16:19;;;;;;;;;;;10.70;99.90;;;;;;5066877;28;19945;-73
2022/10/08 02:18:50;;;;;;;;;;;10.80;99.90;;;;;;5068115;28;20467;-74
2022/10/08 02:21:19;;;;;;;;;;;10.80;99.90;;;;;;5068002;28;19982;-73
2022/10/08 02:23:50;;;;;;;;;;;10.90;99.90;;;;;;5067647;28;19986;-74
2022/10/08 02:26:19;;;;;;;;;;;11.00;99.90;;;;;;5068062;28;19928;-73
2022/10/08 02:28:49;;;;;;;;;;;11.10;99.90;;;;;;5067927;28;19928;-74
2022/10/08 02:31:18;;;;;;;;;;;11.10;99.90;;;;;;5066617;28;19933;-74
2022/10/08 02:33:49;;;;;;;;;;;11.20;99.90;;;;;;5068208;28;20405;-73
2022/10/08 02:36:17;;;;;;;;;;;11.30;99.90;;;;;;5067466;28;19928;-73
2022/10/08 02:38:47;;;;;;;;;;;11.40;99.90;;;;;;5067769;28;19936;-73
2022/10/08 02:41:14;;;;;;;;;;;11.40;99.90;;;;;;5067417;28;19932;-73
2022/10/08 02:43:44;;;;;;;;;;;11.50;99.90;;;;;;5066800;28;20285;-73
2022/10/08 02:46:15;;;;;;;;;;;11.50;99.90;;;;;;5067443;28;19931;-73
2022/10/08 02:48:45;;;;;;;;;;;11.60;99.90;;;;;;5067482;28;19974;-74
2022/10/08 02:51:17;;;;;;;;;;;11.60;99.90;;;;;;5051760;28;19928;-73
2022/10/08 02:53:46;;;;;;;;;;;11.70;99.90;;;;;;5067658;28;19996;-74
2022/10/08 02:56:14;;;;;;;;;;;11.80;99.90;;;;;;5067357;28;20015;-74
2022/10/08 02:58:42;;;;;;;;;;;11.80;99.90;;;;;;5067786;28;20430;-74
2022/10/08 03:01:12;;;;;;;;;;;11.90;99.90;;;;;;5069456;28;19928;-74
2022/10/08 03:03:41;;;;;;;;;;;11.90;99.90;;;;;;5053963;28;19974;-74
2022/10/08 03:06:09;;;;;;;;;;;12.00;99.90;;;;;;5059627;28;19932;-74
2022/10/08 03:08:40;;;;;;;;;;;12.00;99.90;;;;;;5067745;28;19929;-74
2022/10/08 03:11:06;;;;;;;;;;;12.10;99.90;;;;;;5058722;28;19929;-74
2022/10/08 03:13:35;;;;;;;;;;;12.10;99.90;;;;;;5087931;28;19924;-74
2022/10/08 03:16:02;;;;;;;;;;;12.10;99.90;;;;;;5077182;28;19931;-74
2022/10/08 03:18:29;;;;;;;;;;;12.00;99.90;;;;;;5071928;28;19932;-74
2022/10/08 03:20:57;;;;;;;;;;;12.00;99.90;;;;;;5071377;28;19936;-74
2022/10/08 03:23:23;;;;;;;;;;;11.90;99.90;;;;;;5072202;28;19924;-74
2022/10/08 03:25:51;;;;;;;;;;;11.90;99.90;;;;;;5071608;28;19924;-74
2022/10/08 03:28:18;;;;;;;;;;;11.90;99.90;;;;;;5070811;28;19932;-74
2022/10/08 03:30:46;;;;;;;;;;;11.90;99.90;;;;;;5071556;28;19938;-74
2022/10/08 03:33:13;;;;;;;;;;;12.00;99.90;;;;;;5051207;28;19934;-74
2022/10/08 03:35:43;;;;;;;;;;;12.00;99.90;;;;;;5072763;28;19978;-74
2022/10/08 03:38:10;;;;;;;;;;;12.00;99.90;;;;;;5067734;28;19928;-74
2022/10/08 03:40:37;;;;;;;;;;;12.00;99.90;;;;;;5070762;28;19992;-74
2022/10/08 03:43:05;;;;;;;;;;;12.00;99.90;;;;;;5069854;28;19929;-73
2022/10/08 03:45:31;;;;;;;;;;;12.00;99.90;;;;;;5070866;28;19978;-73
2022/10/08 03:47:58;;;;;;;;;;;12.00;99.90;;;;;;5076992;28;19925;-73
2022/10/08 03:50:25;;;;;;;;;;;12.10;99.90;;;;;;5084148;28;19932;-73
2022/10/08 03:52:51;;;;;;;;;;;12.10;99.90;;;;;;5070089;28;20415;-73
2022/10/08 03:55:18;;;;;;;;;;;12.10;99.90;;;;;;5070705;28;19985;-73
2022/10/08 03:57:45;;;;;;;;;;;12.10;99.90;;;;;;5073028;28;19928;-73
2022/10/08 04:00:13;;;;;;;;;;;12.10;99.90;;;;;;5070330;28;20393;-73
2022/10/08 04:02:40;;;;;;;;;;;12.10;99.90;;;;;;5070631;28;19928;-73
2022/10/08 04:05:07;;;;;;;;;;;12.10;99.90;;;;;;5071348;28;19977;-72
2022/10/08 04:07:33;;;;;;;;;;;12.10;99.90;;;;;;5060850;28;19931;-72
2022/10/08 04:10:00;;;;;;;;;;;12.10;99.90;;;;;;5077213;28;19929;-72
2022/10/08 04:12:28;;;;;;;;;;;12.10;99.90;;;;;;5070189;28;20416;-73
2022/10/08 04:14:55;;;;;;;;;;;12.10;99.90;;;;;;5070680;28;20251;-72
2022/10/08 04:17:23;;;;;;;;;;;12.10;99.90;;;;;;5070171;28;19936;-72
2022/10/08 04:19:51;;;;;;;;;;;12.00;99.90;;;;;;5064062;28;19948;-72
2022/10/08 04:22:18;;;;;;;;;;;12.00;99.90;;;;;;5063744;28;19929;-72
2022/10/08 04:24:44;;;;;;;;;;;11.70;99.90;;;;;;5069514;28;19925;-73
2022/10/08 04:27:11;;;;;;;;;;;12.10;99.90;;;;;;5070247;28;19928;-73
2022/10/08 04:29:38;;;;;;;;;;;12.10;99.90;;;;;;5069928;28;19928;-73
2022/10/08 04:32:04;;;;;;;;;;;12.20;99.90;;;;;;5069263;28;19928;-73
2022/10/08 04:34:32;;;;;;;;;;;12.20;99.90;;;;;;5070320;28;19931;-72
2022/10/08 04:36:59;;;;;;;;;;;12.20;99.90;;;;;;5069484;28;20050;-73
2022/10/08 04:39:26;;;;;;;;;;;12.20;99.90;;;;;;5070052;28;19929;-72
2022/10/08 04:41:52;;;;;;;;;;;12.20;99.90;;;;;;5070459;28;19929;-73
2022/10/08 04:44:19;;;;;;;;;;;12.20;99.90;;;;;;5071246;28;19936;-73
2022/10/08 04:46:46;;;;;;;;;;;12.30;99.90;;;;;;5070026;28;19939;-72
2022/10/08 04:49:12;;;;;;;;;;;12.30;99.90;;;;;;5069462;28;19935;-73
2022/10/08 04:51:40;;;;;;;;;;;12.30;99.90;;;;;;5069432;28;20413;-73
2022/10/08 04:54:07;;;;;;;;;;;12.30;99.90;;;;;;5069710;28;19939;-73
2022/10/08 04:56:35;;;;;;;;;;;12.30;99.90;;;;;;5071268;28;19929;-71
2022/10/08 04:59:02;;;;;;;;;;;12.30;99.90;;;;;;5071687;28;19924;-73
2022/10/08 05:01:29;;;;;;;;;;;12.30;99.90;;;;;;5050484;28;19932;-73
2022/10/08 05:03:57;;;;;;;;;;;12.30;99.90;;;;;;5065212;28;19932;-73
2022/10/08 05:06:25;;;;;;;;;;;13.70;99.90;;;;;;5069060;28;19928;-71
2022/10/08 05:08:53;;;;;;;;;;;12.30;99.90;;;;;;5068761;28;19924;-72
2022/10/08 05:11:23;;;;;;;;;;;12.30;99.90;;;;;;5068759;28;19925;-72
2022/10/08 05:13:50;;;;;;;;;;;12.30;99.90;;;;;;5050614;28;19931;-73
2022/10/08 05:16:17;;;;;;;;;;;12.30;99.90;;;;;;5059502;28;20346;-73
2022/10/08 05:18:44;;;;;;;;;;;12.30;99.90;;;;;;5068860;28;19928;-71
2022/10/08 05:21:11;;;;;;;;;;;12.30;99.90;;;;;;5067047;28;19940;-72
2022/10/08 05:23:38;;;;;;;;;;;12.30;99.90;;;;;;5069465;28;20397;-72
2022/10/08 05:26:14;;;;;;;;;;;12.40;99.90;;;;;;5069439;28;19925;-72
2022/10/08 05:28:41;;;;;;;;;;;12.40;99.90;;;;;;5069243;28;19928;-72
2022/10/08 05:31:08;;;;;;;;;;;12.40;99.90;;;;;;5073479;28;20274;-72
2022/10/08 05:33:34;;;;;;;;;;;12.40;99.90;;;;;;5068627;28;19966;-72
2022/10/08 05:36:02;;;;;;;;;;;12.40;99.90;;;;;;5068644;28;20023;-73
2022/10/08 05:38:28;;;;;;;;;;;12.40;99.90;;;;;;5068959;28;19928;-72
2022/10/08 05:40:55;;;;;;;;;;;12.40;99.90;;;;;;5066716;28;20033;-73
2022/10/08 05:43:23;;;;;;;;;;;12.40;99.90;;;;;;5062461;28;19929;-73
2022/10/08 05:45:50;;;;;;;;;;;12.50;99.90;;;;;;5068146;28;19925;-72
2022/10/08 05:48:17;;;;;;;;;;;12.50;99.90;;;;;;5067895;28;19928;-72
2022/10/08 05:50:43;;;;;;;;;;;12.50;99.90;;;;;;5076608;28;19932;-73
2022/10/08 05:53:10;;;;;;;;;;;12.50;99.90;;;;;;5063515;28;19932;-72
2022/10/08 05:55:37;;;;;;;;;;;12.50;99.90;;;;;;5067749;28;19932;-73
2022/10/08 05:58:03;;;;;;;;;;;12.50;99.90;;;;;;5064524;28;19974;-73
2022/10/08 06:00:31;;;;;;;;;;;12.50;99.90;;;;;;5062842;28;19924;-73
2022/10/08 06:02:58;;;;;;;;;;;12.50;99.90;;;;;;5066439;28;20382;-72
2022/10/08 06:05:25;;;;;;;;;;;12.50;99.90;;;;;;5075223;28;19928;-72
2022/10/08 06:07:56;;;;;;;;;;;12.50;99.90;;;;;;5068936;28;19934;-72
2022/10/08 06:10:22;;;;;;;;;;;12.60;99.90;;;;;;5066108;28;19951;-72
2022/10/08 06:12:49;;;;;;;;;;;12.50;99.90;;;;;;5060645;28;20386;-72
2022/10/08 06:15:16;;;;;;;;;;;13.90;99.90;;;;;;5064616;28;19929;-72
2022/10/08 06:17:44;;;;;;;;;;;12.60;99.90;;;;;;5062903;28;19932;-71
2022/10/08 06:20:11;;;;;;;;;;;12.60;99.90;;;;;;5068072;28;19931;-72
2022/10/08 06:22:37;;;;;;;;;;;12.60;99.90;;;;;;5049604;28;19928;-71
2022/10/08 06:25:04;;;;;;;;;;;12.70;99.90;;;;;;5066461;28;20318;-72
2022/10/08 06:27:31;;;;;;;;;;;12.70;99.90;;;;;;5066117;28;19924;-71
2022/10/08 06:29:58;;;;;;;;;;;13.10;99.90;;;;;;5068042;28;19928;-72
2022/10/08 06:32:25;;;;;;;;;;;12.70;99.90;;;;;;5067967;28;20188;-71
2022/10/08 06:34:53;;;;;;;;;;;12.70;99.90;;;;;;5067205;28;19932;-72
2022/10/08 06:37:19;;;;;;;;;;;12.80;99.90;;;;;;5068226;28;19932;-72
2022/10/08 06:39:46;;;;;;;;;;;13.30;99.90;;;;;;5060723;28;20289;-72
2022/10/08 06:42:13;;;;;;;;;;;12.80;99.90;;;;;;5067841;28;20297;-72
2022/10/08 06:44:39;;;;;;;;;;;12.90;99.90;;;;;;5067221;28;19924;-72
2022/10/08 06:47:06;;;;;;;;;;;12.90;99.90;;;;;;5063561;28;19932;-73
2022/10/08 06:49:33;;;;;;;;;;;12.90;99.90;;;;;;5067626;28;19924;-73
2022/10/08 06:52:00;;;;;;;;;;;13.00;99.90;;;;;;5067308;28;20050;-72
2022/10/08 06:54:27;;;;;;;;;;;13.10;99.90;;;;;;5060315;28;19933;-73
2022/10/08 06:56:54;;;;;;;;;;;13.10;99.90;;;;;;5054064;28;20443;-73
2022/10/08 06:59:21;;;;;;;;;;;13.10;99.90;;;;;;5054926;28;20393;-72
2022/10/08 07:01:47;;;;;;;;;;;13.30;99.90;;;;;;5048871;28;19928;-72
2022/10/08 07:04:14;;;;;;;;;;;13.20;99.90;;;;;;5069302;28;20352;-72
2022/10/08 07:06:42;;;;;;;;;;;13.30;99.90;;;;;;5048337;28;20274;-74
2022/10/08 07:09:12;;;;;;;;;;;13.30;99.90;;;;;;5067501;28;20389;-71
2022/10/08 07:11:39;;;;;;;;;;;13.40;99.90;;;;;;5070018;28;19934;-72
2022/10/08 07:14:05;;;;;;;;;;;13.40;99.90;;;;;;5059591;28;19928;-72
2022/10/08 07:16:32;;;;;;;;;;;13.40;99.90;;;;;;5062003;28;19933;-73
2022/10/08 07:18:59;;;;;;;;;;;13.50;99.90;;;;;;5067182;28;19929;-74
2022/10/08 07:21:26;;;;;;;;;;;13.50;99.90;;;;;;5067087;28;20401;-74
2022/10/08 07:23:53;;;;;;;;;;;13.60;99.90;;;;;;5067557;28;19928;-71
2022/10/08 07:26:23;;;;;;;;;;;13.60;99.90;;;;;;5067916;28;20472;-72
2022/10/08 07:28:50;;;;;;;;;;;13.70;99.90;;;;;;5063736;28;19944;-73
2022/10/08 07:31:19;;;;;;;;;;;13.70;99.90;;;;;;5058875;28;19929;-72
2022/10/08 07:33:45;;;;;;;;;;;13.80;99.90;;;;;;5047634;28;20455;-72
2022/10/08 07:36:13;;;;;;;;;;;14.00;99.90;;;;;;5050718;28;19939;-71
2022/10/08 07:38:40;;;;;;;;;;;14.00;99.90;;;;;;5049123;28;19989;-72
2022/10/08 07:41:08;;;;;;;;;;;14.10;99.90;;;;;;5030668;28;19951;-72
2022/10/08 07:43:36;;;;;;;;;;;14.20;99.90;;;;;;5051044;28;20289;-73
2022/10/08 07:46:05;;;;;;;;;;;13.40;99.90;;;;;;5050516;28;20049;-73
2022/10/08 07:48:31;;;;;;;;;;;14.30;99.90;;;;;;5042857;28;19929;-72
2022/10/08 07:51:05;;;;;;;;;;;15.10;99.90;;;;;;5044711;28;20031;-73
2022/10/08 07:53:32;;;;;;;;;;;14.30;99.90;;;;;;5046254;28;19982;-72
2022/10/08 07:55:58;;;;;;;;;;;14.60;99.90;;;;;;5049709;28;20646;-72
2022/10/08 07:58:25;;;;;;;;;;;15.10;99.90;;;;;;5033101;28;19941;-72
2022/10/08 08:00:57;;;;;;;;;;;15.60;99.90;;;;;;5056739;28;19940;-72
2022/10/08 08:03:24;;;;;;;;;;;16.00;99.90;;;;;;5070801;28;19986;-72
2022/10/08 08:05:52;;;;;;;;;;;16.20;99.90;;;;;;5084564;28;19924;-72
2022/10/08 08:08:19;;;;;;;;;;;16.40;99.90;;;;;;5069250;28;19979;-71
2022/10/08 08:10:46;;;;;;;;;;;16.50;99.90;;;;;;5055707;28;19939;-70
2022/10/08 08:13:13;;;;;;;;;;;16.70;99.90;;;;;;5044632;28;19939;-72
2022/10/08 08:15:39;;;;;;;;;;;16.70;99.90;;;;;;5041563;28;19932;-72
2022/10/08 08:18:07;;;;;;;;;;;16.90;99.90;;;;;;5041028;28;19998;-72
2022/10/08 08:20:34;;;;;;;;;;;17.00;99.90;;;;;;5039520;28;20886;-72
2022/10/08 08:23:01;;;;;;;;;;;17.00;99.90;;;;;;5040676;28;19952;-72
2022/10/08 08:25:28;;;;;;;;;;;17.00;99.90;;;;;;5039999;28;19933;-72
2022/10/08 08:27:54;;;;;;;;;;;17.20;99.90;;;;;;5040524;28;19991;-72
2022/10/08 08:30:21;;;;;;;;;;;17.30;99.90;;;;;;5025965;28;20704;-72
2022/10/08 08:32:48;;;;;;;;;;;17.30;99.90;;;;;;5023939;28;20339;-73
2022/10/08 08:35:16;;;;;;;;;;;17.30;99.90;;;;;;5027505;28;20022;-73
2022/10/08 08:37:42;;;;;;;;;;;17.20;99.90;;;;;;5025908;28;20017;-72
2022/10/08 08:40:09;;;;;;;;;;;17.00;99.90;;;;;;5032891;28;19983;-72
2022/10/08 08:42:43;;;;;;;;;;;16.70;99.90;;;;;;5029720;28;19986;-73
2022/10/08 08:45:18;;;;;;;;;;;16.70;99.90;;;;;;5041303;28;20012;-73
2022/10/08 08:47:49;;;;;;;;;;;16.60;99.90;;;;;;5050261;28;20418;-73
2022/10/08 08:50:23;;;;;;;;;;;16.40;99.90;;;;;;5067419;28;19932;-73
2022/10/08 08:52:50;;;;;;;;;;;16.30;99.90;;;;;;5069082;28;19964;-73
2022/10/08 08:55:18;;;;;;;;;;;16.30;99.90;;;;;;5072676;28;19990;-73
2022/10/08 08:57:48;;;;;;;;;;;16.50;99.90;;;;;;5059587;28;19925;-73
2022/10/08 09:00:15;;;;;;;;;;;16.90;99.90;;;;;;5068948;28;19928;-75
2022/10/08 09:02:46;;;;;;;;;;;16.90;99.90;;;;;;5063447;28;19928;-75
2022/10/08 09:05:14;;;;;;;;;;;16.90;99.90;;;;;;5058817;28;20272;-75
2022/10/08 09:07:45;;;;;;;;;;;16.90;99.90;;;;;;5060066;28;19986;-74
2022/10/08 09:10:15;;;;;;;;;;;17.00;99.90;;;;;;5068305;28;19932;-74
2022/10/08 09:12:43;;;;;;;;;;;16.90;99.90;;;;;;5068589;28;20398;-75
2022/10/08 09:15:15;;;;;;;;;;;16.90;99.90;;;;;;5069536;28;20284;-74
2022/10/08 09:17:42;;;;;;;;;;;17.00;99.90;;;;;;5064938;28;19929;-75
2022/10/08 09:20:10;;;;;;;;;;;17.20;99.90;;;;;;5068295;28;19928;-75
2022/10/08 09:22:37;;;;;;;;;;;17.20;99.90;;;;;;5068559;28;19933;-74
2022/10/08 09:25:07;;;;;;;;;;;17.30;99.90;;;;;;5069445;28;19932;-74
2022/10/08 09:27:42;;;;;;;;;;;17.30;99.90;;;;;;5067863;28;19928;-73
2022/10/08 09:30:25;;;;;;;;;;;17.10;99.90;;;;;;5060651;28;19936;-74
2022/10/08 09:32:53;;;;;;;;;;;18.40;99.90;;;;;;5068290;28;20287;-75
2022/10/08 09:35:19;;;;;;;;;;;16.60;99.90;;;;;;5070144;28;19935;-74
2022/10/08 09:37:47;;;;;;;;;;;16.50;99.90;;;;;;5068141;28;19935;-75
2022/10/08 09:40:20;;;;;;;;;;;16.50;99.90;;;;;;5049962;28;20250;-75
2022/10/08 09:43:04;;;;;;;;;;;16.60;99.90;;;;;;5066330;28;20046;-75
2022/10/08 09:45:32;;;;;;;;;;;16.70;99.90;;;;;;5066113;28;19932;-75
2022/10/08 09:48:11;;;;;;;;;;;16.80;99.90;;;;;;5067967;28;20023;-75
2022/10/08 09:50:38;;;;;;;;;;;16.90;99.90;;;;;;5069567;28;19986;-74
2022/10/08 09:53:05;;;;;;;;;;;17.30;99.90;;;;;;5078229;28;20446;-76
2022/10/08 09:55:34;;;;;;;;;;;17.30;99.90;;;;;;5074797;28;19924;-75
2022/10/08 09:58:02;;;;;;;;;;;17.70;99.90;;;;;;5074408;28;19936;-75
2022/10/08 10:00:30;;;;;;;;;;;18.00;99.90;;;;;;5065590;28;19936;-74
2022/10/08 10:02:58;;;;;;;;;;;18.30;99.90;;;;;;5059352;28;19928;-76
2022/10/08 10:05:26;;;;;;;;;;;18.50;99.90;;;;;;5068054;28;20312;-74
2022/10/08 10:07:53;;;;;;;;;;;18.40;99.90;;;;;;5068102;28;19925;-74
2022/10/08 10:10:22;;;;;;;;;;;18.20;99.90;;;;;;5069150;28;19928;-73
2022/10/08 10:12:52;;;;;;;;;;;17.80;99.90;;;;;;5068175;28;19928;-73
2022/10/08 10:15:20;;;;;;;;;;;17.50;99.90;;;;;;5068886;28;19936;-73
2022/10/08 10:17:49;;;;;;;;;;;17.40;99.90;;;;;;5067923;28;19978;-73
2022/10/08 10:20:19;;;;;;;;;;;17.30;99.90;;;;;;5068572;28;19928;-73
2022/10/08 10:22:49;;;;;;;;;;;17.20;99.90;;;;;;5067040;28;19982;-73
2022/10/08 10:25:18;;;;;;;;;;;17.20;99.90;;;;;;5066584;28;19978;-72
2022/10/08 10:27:48;;;;;;;;;;;17.30;99.90;;;;;;5066573;28;19978;-73
2022/10/08 10:30:17;;;;;;;;;;;17.30;99.90;;;;;;5067984;28;19936;-76
2022/10/08 10:32:46;;;;;;;;;;;17.20;99.90;;;;;;5064070;28;19931;-74
2022/10/08 10:35:15;;;;;;;;;;;17.20;99.90;;;;;;5064921;28;20015;-73
2022/10/08 10:37:45;;;;;;;;;;;17.20;99.90;;;;;;5064432;28;19962;-72
2022/10/08 10:40:29;;;;;;;;;;;17.30;99.90;;;;;;5059376;28;19951;-73
2022/10/08 10:43:05;;;;;;;;;;;17.40;99.90;;;;;;5065998;28;20023;-74
2022/10/08 10:45:34;;;;;;;;;;;17.40;99.90;;;;;;5059550;28;19931;-73
2022/10/08 10:48:02;;;;;;;;;;;17.50;99.90;;;;;;5063765;28;19959;-73
2022/10/08 10:50:33;;;;;;;;;;;17.70;99.90;;;;;;5064447;28;19986;-73
2022/10/08 10:53:04;;;;;;;;;;;17.80;99.90;;;;;;5058487;28;21318;-73
2022/10/08 10:55:33;;;;;;;;;;;18.00;99.90;;;;;;5067579;28;19974;-74
2022/10/08 10:58:14;;;;;;;;;;;18.30;99.90;;;;;;5069830;28;19932;-74
2022/10/08 11:00:47;;;;;;;;;;;18.80;99.90;;;;;;5044358;28;19990;-74
2022/10/08 11:03:18;;;;;;;;;;;19.50;99.90;;;;;;5065206;28;19929;-74
2022/10/08 11:05:47;;;;;;;;;;;19.50;99.90;;;;;;5068500;28;19965;-74
2022/10/08 11:08:26;;;;;;;;;;;19.60;99.90;;;;;;5065710;28;19932;-74
2022/10/08 11:10:58;;;;;;;;;;;19.30;99.90;;;;;;5065931;28;20342;-74
2022/10/08 11:13:33;;;;;;;;;;;19.20;99.90;;;;;;5073486;28;19928;-73
2022/10/08 11:16:06;;;;;;;;;;;19.20;99.90;;;;;;5049357;28;21356;-73
2022/10/08 11:18:39;;;;;;;;;;;19.30;99.90;;;;;;5067717;28;19932;-74
2022/10/08 11:21:12;;;;;;;;;;;19.30;99.90;;;;;;5066709;28;20007;-74
2022/10/08 11:23:45;;;;;;;;;;;19.40;99.90;;;;;;5067828;28;19928;-74
2022/10/08 11:26:16;;;;;;;;;;;19.50;99.90;;;;;;5078628;28;19982;-73
2022/10/08 11:28:47;;;;;;;;;;;19.50;99.90;;;;;;5074247;28;19985;-74
2022/10/08 11:31:19;;;;;;;;;;;19.50;99.90;;;;;;5071192;28;19994;-74
2022/10/08 11:33:47;;;;;;;;;;;19.50;99.90;;;;;;5070781;28;19997;-74
2022/10/08 11:36:19;;;;;;;;;;;19.50;99.90;;;;;;5071667;28;20676;-73
2022/10/08 11:38:51;;;;;;;;;;;19.50;99.90;;;;;;5071366;28;20023;-74
2022/10/08 11:41:21;;;;;;;;;;;19.60;99.90;;;;;;5070884;28;20492;-73
2022/10/08 11:43:51;;;;;;;;;;;19.40;99.90;;;;;;5070824;28;19924;-73
2022/10/08 11:46:27;;;;;;;;;;;19.10;99.90;;;;;;5070246;28;19925;-73
2022/10/08 11:48:54;;;;;;;;;;;18.70;99.90;;;;;;5069187;28;20428;-73
2022/10/08 11:51:28;;;;;;;;;;;18.40;99.90;;;;;;5062300;28;19924;-73
2022/10/08 11:54:04;;;;;;;;;;;18.00;99.90;;;;;;5060592;28;19943;-73
2022/10/08 11:56:31;;;;;;;;;;;17.70;99.90;;;;;;5070761;28;20016;-73
2022/10/08 11:59:00;;;;;;;;;;;17.40;99.90;;;;;;5064580;28;19929;-73
2022/10/08 12:01:28;;;;;;;;;;;17.40;99.90;;;;;;5068212;28;19951;-73
2022/10/08 12:04:03;;;;;;;;;;;17.50;99.90;;;;;;5069673;28;19929;-73
2022/10/08 12:06:33;;;;;;;;;;;17.80;99.90;;;;;;5071597;28;19946;-74
2022/10/08 12:09:03;;;;;;;;;;;17.70;99.90;;;;;;5092532;28;19956;-73
2022/10/08 12:11:49;;;;;;;;;;;17.90;99.90;;;;;;5086390;28;19924;-73
2022/10/08 12:14:26;;;;;;;;;;;18.20;99.90;;;;;;5070830;28;19928;-75
2022/10/08 12:17:10;;;;;;;;;;;18.40;99.90;;;;;;5052702;28;20432;-73
2022/10/08 12:19:58;;;;;;;;;;;18.60;99.90;;;;;;5070936;28;20461;-73
2022/10/08 12:22:43;;;;;;;;;;;18.50;99.90;;;;;;5033511;28;20321;-73
2022/10/08 12:25:31;;;;;;;;;;;18.30;99.90;;;;;;5063522;28;20011;-73
2022/10/08 12:28:12;;;;;;;;;;;18.10;99.90;;;;;;5068086;28;19939;-74
2022/10/08 12:30:46;;;;;;;;;;;17.90;99.90;;;;;;5068397;28;19924;-76
2022/10/08 12:33:15;;;;;;;;;;;18.00;99.90;;;;;;5070981;28;19928;-73
2022/10/08 12:35:47;;;;;;;;;;;18.00;99.90;;;;;;5070517;28;20031;-73
2022/10/08 12:38:25;;;;;;;;;;;18.00;99.90;;;;;;5068071;28;21385;-74
2022/10/08 12:41:04;;;;;;;;;;;18.10;99.90;;;;;;5073458;28;19928;-73
2022/10/08 12:43:34;;;;;;;;;;;18.20;99.90;;;;;;5053604;28;20452;-74
2022/10/08 12:46:05;;;;;;;;;;;18.30;99.90;;;;;;5068170;28;19928;-71
2022/10/08 12:48:38;;;;;;;;;;;18.40;99.90;;;;;;5070040;28;20305;-74
2022/10/08 12:51:09;;;;;;;;;;;18.40;99.90;;;;;;5071699;28;19941;-74
2022/10/08 12:53:35;;;;;;;;;;;18.50;99.90;;;;;;5070822;28;19924;-72
2022/10/08 12:56:02;;;;;;;;;;;18.50;99.90;;;;;;5066792;28;20030;-72
2022/10/08 12:58:30;;;;;;;;;;;18.60;99.90;;;;;;5070257;28;20385;-72
2022/10/08 13:00:58;;;;;;;;;;;18.70;99.90;;;;;;5051627;28;19928;-71
2022/10/08 13:03:25;;;;;;;;;;;18.80;99.90;;;;;;5054933;28;19925;-74
2022/10/08 13:05:54;;;;;;;;;;;18.80;99.90;;;;;;5069250;28;19928;-74
2022/10/08 13:08:27;;;;;;;;;;;18.80;99.90;;;;;;5069489;28;19928;-72
2022/10/08 13:10:53;;;;;;;;;;;18.60;99.90;;;;;;5068913;28;19982;-72
2022/10/08 13:13:35;;;;;;;;;;;18.40;99.90;;;;;;5069186;28;19932;-72
2022/10/08 13:16:02;;;;;;;;;;;18.40;99.90;;;;;;5062450;28;19942;-72
2022/10/08 13:18:29;;;;;;;;;;;18.50;99.90;;;;;;5073385;28;19935;-72
2022/10/08 13:20:58;;;;;;;;;;;18.60;99.90;;;;;;5073388;28;19924;-72
2022/10/08 13:23:25;;;;;;;;;;;18.70;99.90;;;;;;5063297;28;19978;-72
2022/10/08 13:25:52;;;;;;;;;;;18.60;99.90;;;;;;5070606;28;19982;-73
2022/10/08 13:28:22;;;;;;;;;;;18.50;99.90;;;;;;5068382;28;19928;-73
2022/10/08 13:30:50;;;;;;;;;;;18.40;99.90;;;;;;5068595;28;19951;-73
2022/10/08 13:33:17;;;;;;;;;;;18.00;99.90;;;;;;5065444;28;20503;-73
2022/10/08 13:35:50;;;;;;;;;;;18.00;99.90;;;;;;5067777;28;20008;-73
2022/10/08 13:38:21;;;;;;;;;;;17.80;99.90;;;;;;5065551;28;20469;-72
2022/10/08 13:40:48;;;;;;;;;;;17.50;99.90;;;;;;5066916;28;19928;-73
2022/10/08 13:43:15;;;;;;;;;;;17.30;99.90;;;;;;5066392;28;19936;-72
2022/10/08 13:45:42;;;;;;;;;;;17.20;99.90;;;;;;5067118;28;19928;-73
2022/10/08 13:48:10;;;;;;;;;;;17.20;99.90;;;;;;5063753;28;19932;-73
2022/10/08 13:50:41;;;;;;;;;;;17.10;99.90;;;;;;5063282;28;19974;-74
2022/10/08 13:53:09;;;;;;;;;;;17.30;99.90;;;;;;5057840;28;20385;-74
2022/10/08 13:55:38;;;;;;;;;;;17.30;99.90;;;;;;5070682;28;19924;-73
2022/10/08 13:58:05;;;;;;;;;;;17.50;99.90;;;;;;5070373;28;20606;-73
2022/10/08 14:00:34;;;;;;;;;;;17.70;99.90;;;;;;5068834;28;19998;-74
2022/10/08 14:03:01;;;;;;;;;;;17.90;99.90;;;;;;5068767;28;19938;-73
2022/10/08 14:05:28;;;;;;;;;;;18.10;99.90;;;;;;5606254;22;19935;-73
2022/10/08 14:07:56;;;;;;;;;;;18.20;99.90;;;;;;5088562;28;19932;-73
2022/10/08 14:10:23;;;;;;;;;;;18.40;99.90;;;;;;5086754;28;19924;-73
2022/10/08 14:12:51;;;;;;;;;;;18.60;99.90;;;;;;5087682;28;20393;-73
2022/10/08 14:15:18;;;;;;;;;;;18.70;99.90;;;;;;5085770;28;20296;-73
2022/10/08 14:17:45;;;;;;;;;;;18.50;99.90;;;;;;5107218;22;20252;-78
2022/10/08 14:20:12;;;;;;;;;;;19.60;99.90;;;;;;5093557;28;19928;-77
2022/10/08 14:22:39;;;;;;;;;;;18.40;99.90;;;;;;5103869;28;20301;-77
2022/10/08 14:25:07;;;;;;;;;;;18.30;99.90;;;;;;5084180;28;19932;-77
2022/10/08 14:27:37;;;;;;;;;;;18.40;99.90;;;;;;5102503;28;19928;-77
2022/10/08 14:30:06;;;;;;;;;;;18.30;99.90;;;;;;5099035;28;19934;-77
2022/10/08 14:32:33;;;;;;;;;;;18.30;99.90;;;;;;5105202;28;19924;-76